Time;durP1;ratioP1;P1;durP2;ratioP2;P2;SDS_P1;SDS_P2;PMS_P1;PMS_P2;Temp;Humidity;BMP_temperature;BMP_pressure;BME280_temperature;BME280_humidity;BME280_pressure;Samples;Min_cycle;Max_cycle;Signal;HPM_P1;HPM_P2
2021/09/24 00:00:39;;;;;;;6.05;3.35;;;21.20;56.30;;;;;;6231485;27;80872;-61
2021/09/24 00:03:40;;;;;;;4.07;3.35;;;21.20;56.40;;;;;;6233746;28;81618;-63
2021/09/24 00:06:41;;;;;;;6.47;3.60;;;21.20;56.20;;;;;;6226843;27;80769;-61
2021/09/24 00:09:41;;;;;;;4.43;3.30;;;21.20;56.40;;;;;;6225494;27;81909;-61
2021/09/24 00:12:42;;;;;;;4.43;3.40;;;21.20;56.10;;;;;;6221152;28;80293;-61
2021/09/24 00:15:42;;;;;;;6.45;3.22;;;21.20;56.20;;;;;;6231142;28;80522;-60
2021/09/24 00:18:43;;;;;;;5.45;3.55;;;21.20;56.30;;;;;;6231753;28;80592;-60
2021/09/24 00:21:43;;;;;;;4.50;3.25;;;21.20;56.30;;;;;;6231689;28;80526;-60
2021/09/24 00:24:44;;;;;;;5.95;3.85;;;21.20;56.20;;;;;;6232101;28;81532;-60
2021/09/24 00:27:44;;;;;;;4.97;3.95;;;21.20;56.30;;;;;;6230970;28;83740;-60
2021/09/24 00:30:45;;;;;;;4.35;3.55;;;21.20;56.40;;;;;;6233719;27;80344;-60
2021/09/24 00:33:45;;;;;;;4.93;3.30;;;21.20;56.50;;;;;;6230309;28;82888;-61
2021/09/24 00:36:46;;;;;;;6.43;3.47;;;21.20;56.30;;;;;;6232619;27;80542;-60
2021/09/24 00:39:46;;;;;;;3.80;3.35;;;21.20;56.40;;;;;;6231367;27;80866;-61
2021/09/24 00:42:47;;;;;;;5.15;3.78;;;21.20;56.30;;;;;;6221417;28;80344;-61
2021/09/24 00:45:47;;;;;;;5.68;3.70;;;21.20;56.40;;;;;;6229441;28;80902;-62
2021/09/24 00:48:48;;;;;;;3.88;3.20;;;21.20;56.50;;;;;;6193814;28;80351;-61
2021/09/24 00:51:48;;;;;;;3.70;3.10;;;21.20;56.60;;;;;;6192481;28;80572;-61
2021/09/24 00:54:49;;;;;;;3.25;2.80;;;21.20;56.30;;;;;;6206541;28;80884;-60
2021/09/24 00:57:49;;;;;;;3.65;3.10;;;21.20;56.40;;;;;;6229813;28;82948;-61
2021/09/24 01:00:50;;;;;;;4.45;3.45;;;21.20;56.70;;;;;;6230163;27;81241;-61
2021/09/24 01:03:50;;;;;;;4.10;3.20;;;21.20;56.80;;;;;;6230985;27;80373;-61
2021/09/24 01:06:51;;;;;;;3.58;3.15;;;21.20;56.60;;;;;;6225034;28;80839;-61
2021/09/24 01:09:51;;;;;;;3.67;3.28;;;21.20;56.90;;;;;;6231822;27;80120;-62
2021/09/24 01:12:52;;;;;;;4.03;2.97;;;21.20;56.90;;;;;;6232986;28;80879;-61
2021/09/24 01:15:52;;;;;;;4.93;3.45;;;21.20;56.80;;;;;;6230542;27;80667;-61
2021/09/24 01:18:53;;;;;;;4.18;3.30;;;21.20;56.80;;;;;;6218859;28;80508;-61
2021/09/24 01:21:53;;;;;;;5.53;3.70;;;21.20;56.90;;;;;;6207091;28;80628;-61
2021/09/24 01:24:54;;;;;;;5.20;3.30;;;21.20;56.80;;;;;;6225174;28;80709;-61
2021/09/24 01:27:55;;;;;;;4.80;3.10;;;21.20;56.90;;;;;;6229511;27;80536;-61
2021/09/24 01:30:55;;;;;;;4.55;3.53;;;21.20;56.70;;;;;;6224994;27;80860;-61
2021/09/24 01:33:56;;;;;;;6.47;3.63;;;21.20;56.70;;;;;;6232241;27;80463;-61
2021/09/24 01:36:56;;;;;;;5.75;3.88;;;21.20;56.60;;;;;;6217261;28;81021;-61
2021/09/24 01:39:57;;;;;;;4.78;3.25;;;21.20;56.80;;;;;;6224785;28;81215;-61
2021/09/24 01:42:57;;;;;;;4.28;3.55;;;21.20;56.60;;;;;;6227701;28;80641;-61
2021/09/24 01:45:58;;;;;;;5.25;3.67;;;21.20;56.50;;;;;;6231268;27;80358;-61
2021/09/24 01:48:58;;;;;;;3.28;2.97;;;21.20;56.70;;;;;;6232228;27;80490;-61
2021/09/24 01:51:59;;;;;;;3.58;3.00;;;21.20;56.60;;;;;;6229964;28;81242;-61
2021/09/24 01:54:59;;;;;;;3.45;3.10;;;21.20;56.70;;;;;;6229893;27;80488;-61
2021/09/24 01:58:00;;;;;;;4.88;3.20;;;21.20;56.60;;;;;;6229372;27;80328;-61
2021/09/24 02:01:00;;;;;;;3.30;3.00;;;21.20;56.60;;;;;;6230514;27;80570;-61
2021/09/24 02:04:01;;;;;;;5.65;3.20;;;21.20;56.50;;;;;;6230093;28;80426;-61
2021/09/24 02:07:01;;;;;;;6.57;3.50;;;21.20;56.50;;;;;;6226722;28;80524;-61
2021/09/24 02:10:02;;;;;;;3.72;3.17;;;21.20;56.50;;;;;;6222773;28;80613;-61
2021/09/24 02:13:03;;;;;;;4.38;3.28;;;21.20;56.70;;;;;;6229659;28;80682;-61
2021/09/24 02:16:04;;;;;;;3.65;3.20;;;21.10;56.60;;;;;;6217973;28;80497;-61
2021/09/24 02:19:04;;;;;;;3.78;3.03;;;21.20;56.60;;;;;;6231095;27;83340;-61
2021/09/24 02:22:05;;;;;;;4.85;3.35;;;21.10;56.40;;;;;;6227373;27;80748;-61
2021/09/24 02:25:05;;;;;;;4.78;3.25;;;21.20;56.70;;;;;;6231096;27;81093;-61
2021/09/24 02:28:06;;;;;;;5.03;3.50;;;21.20;56.70;;;;;;6218969;27;80654;-60
2021/09/24 02:31:09;;;;;;;3.80;3.42;;;21.20;56.90;;;;;;6227055;27;81193;-60
2021/09/24 02:34:10;;;;;;;3.78;2.85;;;21.10;56.80;;;;;;6231514;28;80731;-60
2021/09/24 02:37:10;;;;;;;4.25;3.08;;;21.20;56.80;;;;;;6229257;27;80144;-60
2021/09/24 02:40:11;;;;;;;5.53;3.03;;;21.10;56.70;;;;;;6228564;27;80317;-60
2021/09/24 02:43:11;;;;;;;3.33;2.75;;;21.10;56.90;;;;;;6220624;27;81322;-61
2021/09/24 02:46:12;;;;;;;4.28;3.00;;;21.20;56.90;;;;;;6234829;27;80617;-60
2021/09/24 02:49:12;;;;;;;3.63;2.92;;;21.20;56.90;;;;;;6235738;28;80706;-61
2021/09/24 02:52:13;;;;;;;3.40;2.92;;;21.20;56.80;;;;;;6232307;27;80423;-60
2021/09/24 02:55:19;;;;;;;4.60;3.30;;;21.20;56.90;;;;;;6234498;27;81074;-61
2021/09/24 02:58:20;;;;;;;4.20;3.17;;;21.20;56.80;;;;;;6223722;28;82026;-60
2021/09/24 03:01:20;;;;;;;4.35;2.72;;;21.20;57.60;;;;;;6226216;28;80949;-60
2021/09/24 03:04:21;;;;;;;4.20;3.13;;;21.20;57.10;;;;;;6234133;27;80498;-60
2021/09/24 03:07:21;;;;;;;3.40;2.75;;;21.20;56.90;;;;;;6234595;27;80215;-60
2021/09/24 03:10:22;;;;;;;3.92;3.05;;;21.20;57.10;;;;;;6236195;28;80567;-61
2021/09/24 03:13:22;;;;;;;3.10;2.63;;;21.20;57.40;;;;;;6233018;27;81290;-60
2021/09/24 03:16:23;;;;;;;4.38;2.80;;;21.10;57.00;;;;;;6225419;27;81216;-60
2021/09/24 03:19:24;;;;;;;6.53;3.05;;;21.20;56.90;;;;;;6233976;27;80702;-60
2021/09/24 03:22:24;;;;;;;3.63;2.95;;;21.20;57.30;;;;;;6232893;27;80318;-59
2021/09/24 03:25:25;;;;;;;8.30;3.05;;;21.20;57.10;;;;;;6232782;28;81059;-60
2021/09/24 03:28:25;;;;;;;3.85;2.65;;;21.20;57.00;;;;;;6227991;28;80905;-60
2021/09/24 03:31:26;;;;;;;4.05;2.60;;;21.10;57.00;;;;;;6215299;28;81575;-60
2021/09/24 03:34:26;;;;;;;4.50;3.03;;;21.20;57.10;;;;;;6233199;27;80496;-60
2021/09/24 03:37:27;;;;;;;2.92;2.45;;;21.20;57.10;;;;;;6233402;27;80535;-61
2021/09/24 03:40:27;;;;;;;3.10;2.70;;;21.20;57.20;;;;;;6230593;27;80324;-61
2021/09/24 03:43:28;;;;;;;3.55;2.95;;;21.10;56.80;;;;;;6231124;27;80601;-61
2021/09/24 03:46:28;;;;;;;3.05;2.40;;;21.20;57.10;;;;;;6232410;27;80635;-63
2021/09/24 03:49:29;;;;;;;3.42;2.83;;;21.20;57.40;;;;;;6222919;27;80429;-60
2021/09/24 03:52:29;;;;;;;4.38;3.25;;;21.20;57.20;;;;;;6202362;28;81535;-61
2021/09/24 03:55:30;;;;;;;9.40;3.22;;;21.10;57.70;;;;;;6201026;28;80385;-61
2021/09/24 03:58:31;;;;;;;12.18;3.75;;;21.10;58.30;;;;;;6206451;27;81420;-63
2021/09/24 04:01:32;;;;;;;5.90;3.00;;;21.10;58.60;;;;;;6209086;27;83270;-62
2021/09/24 04:04:32;;;;;;;12.43;3.83;;;21.10;58.10;;;;;;6208052;27;80954;-62
2021/09/24 04:07:33;;;;;;;13.60;3.90;;;21.20;59.30;;;;;;6199933;27;81650;-61
2021/09/24 04:10:33;;;;;;;7.55;3.00;;;21.20;58.60;;;;;;6206390;27;80614;-61
2021/09/24 04:13:34;;;;;;;7.10;3.40;;;21.20;58.90;;;;;;6204324;27;80605;-61
2021/09/24 04:16:34;;;;;;;7.82;3.40;;;21.20;59.60;;;;;;6208194;27;81371;-61
2021/09/24 04:19:35;;;;;;;6.40;3.47;;;21.20;59.80;;;;;;6207031;27;80473;-61
2021/09/24 04:22:35;;;;;;;5.45;3.22;;;21.20;60.30;;;;;;6201824;27;80568;-60
2021/09/24 04:25:36;;;;;;;7.18;3.17;;;21.30;60.00;;;;;;6200512;27;80812;-60
2021/09/24 04:28:36;;;;;;;3.65;2.58;;;21.20;60.50;;;;;;6204353;28;80974;-60
2021/09/24 04:31:37;;;;;;;6.18;3.10;;;21.20;60.20;;;;;;6228218;28;81078;-60
2021/09/24 04:34:38;;;;;;;6.75;2.97;;;21.20;60.00;;;;;;6225656;27;80386;-59
2021/09/24 04:37:38;;;;;;;5.78;3.17;;;21.20;60.10;;;;;;6232845;28;80745;-62
2021/09/24 04:40:39;;;;;;;6.60;3.10;;;21.20;59.70;;;;;;6231464;28;80423;-60
2021/09/24 04:43:40;;;;;;;9.73;3.30;;;21.20;60.60;;;;;;6227213;28;80085;-60
2021/09/24 04:46:40;;;;;;;9.68;3.17;;;21.20;60.80;;;;;;6229607;28;80367;-59
2021/09/24 04:49:41;;;;;;;7.50;3.15;;;21.20;60.50;;;;;;6233908;27;80997;-58
2021/09/24 04:52:41;;;;;;;5.97;2.80;;;21.30;59.80;;;;;;6231826;28;80508;-58
2021/09/24 04:55:42;;;;;;;8.10;3.30;;;21.20;60.80;;;;;;6233917;27;80441;-60
2021/09/24 04:58:42;;;;;;;7.88;3.63;;;21.20;60.30;;;;;;6226273;28;80908;-61
2021/09/24 05:01:43;;;;;;;10.43;3.55;;;21.20;60.30;;;;;;6225175;27;80717;-60
2021/09/24 05:04:43;;;;;;;8.73;3.08;;;21.30;59.90;;;;;;6226502;27;81541;-61
2021/09/24 05:07:46;;;;;;;6.40;3.63;;;21.20;59.70;;;;;;6230343;28;80432;-60
2021/09/24 05:10:46;;;;;;;6.15;3.33;;;21.20;59.70;;;;;;6231910;27;80685;-62
2021/09/24 05:13:47;;;;;;;6.97;3.42;;;21.20;59.10;;;;;;6221965;27;81378;-61
2021/09/24 05:16:47;;;;;;;7.95;3.40;;;21.20;59.70;;;;;;6232181;27;80814;-62
2021/09/24 05:19:48;;;;;;;10.23;3.30;;;21.20;58.80;;;;;;6226524;27;80512;-63
2021/09/24 05:22:48;;;;;;;7.30;3.17;;;21.20;59.30;;;;;;6235373;27;80711;-65
2021/09/24 05:25:49;;;;;;;6.88;3.30;;;21.20;59.50;;;;;;6223247;28;80636;-65
2021/09/24 05:28:49;;;;;;;8.27;3.38;;;21.20;58.20;;;;;;6224116;27;80317;-65
2021/09/24 05:31:50;;;;;;;11.20;3.38;;;21.10;57.00;;;;;;6230691;28;80411;-63
2021/09/24 05:34:51;;;;;;;14.27;3.45;;;21.00;55.90;;;;;;6221014;27;80397;-63
2021/09/24 05:37:51;;;;;;;6.13;2.72;;;21.00;55.20;;;;;;6224381;28;81505;-65
2021/09/24 05:40:52;;;;;;;10.07;2.88;;;21.00;54.60;;;;;;6230546;27;80994;-63
2021/09/24 05:43:52;;;;;;;7.20;2.83;;;21.00;53.90;;;;;;6225042;28;81235;-63
2021/09/24 05:46:53;;;;;;;8.57;3.08;;;20.90;53.50;;;;;;6236167;27;80522;-63
2021/09/24 05:49:53;;;;;;;8.05;2.85;;;20.90;53.10;;;;;;6223321;27;81024;-63
2021/09/24 05:52:54;;;;;;;5.82;2.63;;;20.90;53.00;;;;;;6225880;28;80319;-63
2021/09/24 05:55:55;;;;;;;11.68;4.32;;;20.90;52.90;;;;;;6224720;27;84203;-63
2021/09/24 05:58:56;;;;;;;8.60;3.40;;;20.80;52.70;;;;;;6230838;28;81097;-63
2021/09/24 06:01:57;;;;;;;6.15;3.13;;;20.80;52.70;;;;;;6231471;27;80343;-63
2021/09/24 06:04:58;;;;;;;10.38;2.88;;;20.80;52.70;;;;;;6221128;28;80478;-63
2021/09/24 06:07:59;;;;;;;7.90;2.83;;;20.80;52.50;;;;;;6225471;28;81399;-64
2021/09/24 06:10:59;;;;;;;10.32;2.53;;;20.80;52.60;;;;;;6225921;28;80673;-64
2021/09/24 06:14:00;;;;;;;12.05;3.28;;;20.80;52.80;;;;;;6228952;28;80259;-65
2021/09/24 06:17:00;;;;;;;9.05;2.55;;;20.80;52.80;;;;;;6231185;27;80475;-64
2021/09/24 06:20:01;;;;;;;8.65;2.53;;;20.80;52.60;;;;;;6226019;28;81255;-63
2021/09/24 06:23:01;;;;;;;6.28;2.35;;;20.70;52.60;;;;;;6230512;28;87696;-63
2021/09/24 06:26:03;;;;;;;9.05;3.17;;;20.70;52.30;;;;;;6226397;27;85252;-63
2021/09/24 06:29:04;;;;;;;10.30;2.53;;;20.70;52.20;;;;;;6227935;27;80920;-63
2021/09/24 06:32:04;;;;;;;10.00;2.75;;;20.70;52.20;;;;;;6233831;27;80617;-63
2021/09/24 06:35:05;;;;;;;8.52;2.92;;;20.70;52.00;;;;;;6226097;27;80487;-63
2021/09/24 06:38:05;;;;;;;6.93;2.15;;;20.70;51.70;;;;;;6235095;27;80545;-63
2021/09/24 06:41:06;;;;;;;8.73;2.70;;;20.60;51.20;;;;;;6229563;27;80792;-63
2021/09/24 06:44:07;;;;;;;9.63;3.10;;;20.60;51.20;;;;;;6240690;27;81306;-63
2021/09/24 06:47:08;;;;;;;9.50;2.55;;;20.60;50.60;;;;;;6229830;27;80263;-63
2021/09/24 06:50:08;;;;;;;10.77;2.92;;;20.50;49.70;;;;;;6234517;27;80815;-63
2021/09/24 06:53:09;;;;;;;8.35;2.30;;;20.50;49.70;;;;;;6235135;27;80378;-63
2021/09/24 06:56:10;;;;;;;8.75;2.67;;;20.40;49.30;;;;;;6233302;27;80512;-63
2021/09/24 06:59:11;;;;;;;7.68;2.20;;;20.50;49.70;;;;;;6234615;27;80655;-63
2021/09/24 07:02:12;;;;;;;15.75;2.92;;;20.40;49.80;;;;;;6231199;27;80459;-63
2021/09/24 07:05:13;;;;;;;11.52;3.10;;;20.40;49.70;;;;;;6227748;28;81344;-63
2021/09/24 07:08:13;;;;;;;14.75;3.25;;;20.40;49.90;;;;;;6224186;28;80444;-63
2021/09/24 07:11:14;;;;;;;11.57;3.38;;;20.40;49.80;;;;;;6205528;28;80499;-63
2021/09/24 07:14:14;;;;;;;14.65;2.97;;;20.30;49.90;;;;;;6229340;27;81047;-63
2021/09/24 07:17:15;;;;;;;15.38;3.13;;;20.40;50.30;;;;;;6229559;27;80770;-63
2021/09/24 07:20:15;;;;;;;16.17;3.50;;;20.40;50.50;;;;;;6228749;27;83473;-62
2021/09/24 07:23:16;;;;;;;11.38;3.78;;;20.40;50.40;;;;;;6227628;27;80586;-63
2021/09/24 07:26:16;;;;;;;15.50;3.75;;;20.40;50.40;;;;;;6225937;28;82072;-63
2021/09/24 07:29:17;;;;;;;14.35;3.40;;;20.40;50.20;;;;;;6229767;27;80585;-63
2021/09/24 07:32:18;;;;;;;12.55;2.85;;;20.40;50.20;;;;;;6233939;27;81091;-63
2021/09/24 07:35:18;;;;;;;13.10;3.75;;;20.40;50.60;;;;;;6233981;27;80455;-63
2021/09/24 07:38:21;;;;;;;13.35;3.55;;;20.40;50.60;;;;;;6232721;27;80586;-62
2021/09/24 07:41:21;;;;;;;12.77;3.08;;;20.40;50.80;;;;;;6229245;28;82357;-62
2021/09/24 07:44:22;;;;;;;11.57;3.17;;;20.40;51.00;;;;;;6233371;27;81476;-62
2021/09/24 07:47:23;;;;;;;13.48;2.95;;;20.40;51.00;;;;;;6227405;28;81646;-62
2021/09/24 07:50:23;;;;;;;9.60;2.88;;;20.40;51.20;;;;;;6223435;27;80662;-62
2021/09/24 07:53:24;;;;;;;10.15;3.33;;;20.40;51.00;;;;;;6230844;27;80568;-62
2021/09/24 07:56:24;;;;;;;11.77;3.63;;;20.40;51.20;;;;;;6233163;27;80907;-62
2021/09/24 07:59:25;;;;;;;9.70;2.78;;;20.40;51.20;;;;;;6232122;27;81501;-62
2021/09/24 08:02:25;;;;;;;9.52;2.90;;;20.40;51.20;;;;;;6232654;28;80635;-62
2021/09/24 08:05:26;;;;;;;10.65;2.85;;;20.40;51.40;;;;;;6235191;28;80394;-62
2021/09/24 08:08:27;;;;;;;9.65;3.55;;;20.40;51.40;;;;;;6230807;27;80562;-62
2021/09/24 08:11:27;;;;;;;11.73;5.03;;;20.40;51.50;;;;;;6231400;27;80454;-62
2021/09/24 08:14:28;;;;;;;13.63;4.53;;;20.40;51.70;;;;;;6222460;27;80267;-62
2021/09/24 08:17:28;;;;;;;11.02;3.38;;;20.40;51.60;;;;;;6224633;28;80553;-62
2021/09/24 08:20:29;;;;;;;14.40;3.60;;;20.50;51.60;;;;;;6221293;27;80540;-62
2021/09/24 08:23:29;;;;;;;12.52;3.30;;;20.50;51.70;;;;;;6233493;27;80840;-62
2021/09/24 08:26:30;;;;;;;9.55;3.13;;;20.50;51.60;;;;;;6232045;27;80394;-62
2021/09/24 08:29:30;;;;;;;9.43;3.00;;;20.40;51.50;;;;;;6231647;27;80745;-62
2021/09/24 08:32:34;;;;;;;11.30;4.40;;;20.50;51.40;;;;;;6231563;27;80736;-62
2021/09/24 08:35:34;;;;;;;12.13;3.47;;;20.50;51.20;;;;;;6223124;27;80482;-62
2021/09/24 08:38:35;;;;;;;10.68;3.50;;;20.50;51.20;;;;;;6227302;27;80365;-62
2021/09/24 08:41:35;;;;;;;11.38;3.17;;;20.50;51.50;;;;;;6231007;27;80543;-62
2021/09/24 08:44:36;;;;;;;9.05;2.60;;;20.50;51.00;;;;;;6230819;27;81521;-62
2021/09/24 08:47:36;;;;;;;15.43;3.50;;;20.60;51.30;;;;;;6230734;28;88296;-62
2021/09/24 08:50:37;;;;;;;8.10;2.95;;;20.60;51.10;;;;;;6231523;27;81638;-62
2021/09/24 08:53:37;;;;;;;10.88;3.30;;;20.60;51.30;;;;;;6227241;27;80501;-62
2021/09/24 08:56:38;;;;;;;11.35;2.95;;;20.50;50.80;;;;;;6227621;28;80356;-62
2021/09/24 08:59:38;;;;;;;9.40;2.55;;;20.60;50.60;;;;;;6223509;27;80568;-62
2021/09/24 09:02:39;;;;;;;12.05;3.25;;;20.60;50.70;;;;;;6230299;27;81934;-62
2021/09/24 09:05:39;;;;;;;11.10;3.13;;;20.60;50.60;;;;;;6223157;28;80601;-62
2021/09/24 09:08:40;;;;;;;11.95;3.42;;;20.60;50.30;;;;;;6231836;27;80487;-62
2021/09/24 09:11:40;;;;;;;10.07;3.35;;;20.60;50.30;;;;;;6228507;27;80554;-62
2021/09/24 09:14:41;;;;;;;9.23;2.95;;;20.60;50.30;;;;;;6230153;27;81849;-63
2021/09/24 09:17:41;;;;;;;9.10;3.10;;;20.60;50.30;;;;;;6230672;28;80808;-63
2021/09/24 09:20:42;;;;;;;7.78;3.03;;;20.60;50.30;;;;;;6237440;27;80658;-62
2021/09/24 09:23:45;;;;;;;10.75;3.10;;;20.60;49.90;;;;;;6231579;28;80774;-62
2021/09/24 09:26:45;;;;;;;7.70;2.80;;;20.60;49.80;;;;;;6230188;28;80376;-61
2021/09/24 09:29:46;;;;;;;14.95;3.35;;;20.50;50.10;;;;;;6226534;27;81636;-62
2021/09/24 09:32:46;;;;;;;6.32;2.17;;;20.50;49.90;;;;;;6228171;28;81391;-62
2021/09/24 09:35:47;;;;;;;13.52;3.10;;;20.50;49.60;;;;;;6230583;28;81383;-62
2021/09/24 09:38:47;;;;;;;12.55;3.08;;;20.50;49.50;;;;;;6230998;28;80493;-62
2021/09/24 09:41:48;;;;;;;7.60;2.88;;;20.50;49.80;;;;;;6228840;27;80283;-62
2021/09/24 09:44:48;;;;;;;9.43;2.78;;;20.50;49.40;;;;;;6228816;27;80679;-62
2021/09/24 09:47:49;;;;;;;10.18;3.20;;;20.50;49.90;;;;;;6225329;27;81092;-61
2021/09/24 09:50:49;;;;;;;11.68;3.45;;;20.60;50.40;;;;;;6230764;27;80944;-61
2021/09/24 09:53:50;;;;;;;7.22;3.00;;;20.60;50.80;;;;;;6229652;27;81781;-61
2021/09/24 09:56:50;;;;;;;9.95;3.28;;;20.70;51.00;;;;;;6229658;27;80825;-61
2021/09/24 09:59:51;;;;;;;12.32;3.58;;;20.70;51.00;;;;;;6230698;27;80668;-62
2021/09/24 10:02:52;;;;;;;10.50;3.60;;;20.80;51.30;;;;;;6229828;28;80536;-61
2021/09/24 10:05:52;;;;;;;9.68;3.08;;;20.80;51.20;;;;;;6228732;28;81381;-62
2021/09/24 10:08:53;;;;;;;6.40;2.15;;;20.80;51.50;;;;;;6230150;27;80597;-61
2021/09/24 10:11:53;;;;;;;9.93;2.83;;;20.80;51.30;;;;;;6222209;27;80727;-62
2021/09/24 10:14:54;;;;;;;5.43;2.25;;;20.80;51.50;;;;;;6227118;27;80997;-62
2021/09/24 10:17:54;;;;;;;5.75;2.33;;;20.80;51.80;;;;;;6229809;27;81547;-62
2021/09/24 10:20:55;;;;;;;8.00;2.47;;;20.80;52.30;;;;;;6223614;28;81255;-62
2021/09/24 10:23:55;;;;;;;9.68;2.85;;;20.80;51.60;;;;;;6229255;27;80606;-62
2021/09/24 10:26:56;;;;;;;7.38;2.47;;;20.90;51.80;;;;;;6228020;28;81017;-62
2021/09/24 10:29:56;;;;;;;7.63;3.17;;;20.90;51.90;;;;;;6228072;27;80636;-62
2021/09/24 10:32:57;;;;;;;4.18;2.47;;;21.00;52.00;;;;;;6230394;27;80708;-62
2021/09/24 10:35:58;;;;;;;6.95;2.95;;;21.00;52.10;;;;;;6229991;27;80954;-61
2021/09/24 10:38:59;;;;;;;9.55;2.95;;;21.00;51.90;;;;;;6227935;28;81392;-62
2021/09/24 10:41:59;;;;;;;5.03;2.75;;;21.00;52.10;;;;;;6228016;27;83098;-61
2021/09/24 10:45:00;;;;;;;6.47;2.60;;;21.00;52.40;;;;;;6227212;28;80571;-61
2021/09/24 10:48:01;;;;;;;5.70;2.97;;;21.00;52.50;;;;;;6223956;28;80817;-61
2021/09/24 10:51:02;;;;;;;6.05;2.58;;;21.00;52.40;;;;;;6230858;27;80972;-61
2021/09/24 10:54:03;;;;;;;7.47;2.63;;;21.00;52.40;;;;;;6229715;27;80499;-61
2021/09/24 10:57:03;;;;;;;5.40;2.53;;;21.00;52.40;;;;;;6227022;28;80386;-62
2021/09/24 11:00:04;;;;;;;5.07;2.55;;;21.00;52.40;;;;;;6225827;28;80717;-62
2021/09/24 11:03:04;;;;;;;7.40;2.83;;;21.00;52.40;;;;;;6227707;27;80913;-62
2021/09/24 11:06:05;;;;;;;4.97;2.50;;;21.00;52.40;;;;;;6229243;27;80770;-61
2021/09/24 11:09:05;;;;;;;7.78;2.83;;;21.00;52.40;;;;;;6228187;27;81114;-62
2021/09/24 11:12:08;;;;;;;4.88;2.28;;;21.00;52.40;;;;;;6231073;27;80710;-62
2021/09/24 11:15:09;;;;;;;4.28;2.13;;;21.00;52.50;;;;;;6232974;28;81443;-62
2021/09/24 11:18:09;;;;;;;4.40;2.28;;;21.00;52.60;;;;;;6232384;27;80693;-62
2021/09/24 11:21:10;;;;;;;6.22;2.35;;;21.00;52.60;;;;;;6222415;27;80449;-62
2021/09/24 11:24:11;;;;;;;6.18;2.80;;;21.00;52.50;;;;;;6235601;28;81237;-62
2021/09/24 11:27:12;;;;;;;4.82;2.20;;;21.00;52.30;;;;;;6232499;27;81149;-63
2021/09/24 11:30:13;;;;;;;5.53;2.38;;;21.00;52.40;;;;;;6234084;28;81345;-63
2021/09/24 11:33:13;;;;;;;7.43;2.75;;;21.00;52.60;;;;;;6230425;28;80396;-62
2021/09/24 11:36:14;;;;;;;5.53;2.40;;;21.00;52.60;;;;;;6229233;28;82614;-62
2021/09/24 11:39:15;;;;;;;7.22;2.30;;;21.00;52.50;;;;;;6233661;27;81528;-62
2021/09/24 11:42:15;;;;;;;5.72;2.13;;;21.00;52.60;;;;;;6232103;27;81515;-62
2021/09/24 11:45:16;;;;;;;5.00;2.50;;;21.00;52.60;;;;;;6231146;27;80584;-62
2021/09/24 11:48:16;;;;;;;6.53;3.15;;;21.00;52.70;;;;;;6232752;27;80330;-62
2021/09/24 11:51:17;;;;;;;6.20;2.50;;;21.10;52.80;;;;;;6229228;28;82963;-62
2021/09/24 11:54:17;;;;;;;3.13;1.95;;;21.10;52.80;;;;;;6233595;27;80970;-62
2021/09/24 11:57:18;;;;;;;4.97;2.42;;;21.10;52.90;;;;;;6231870;27;80901;-62
2021/09/24 12:00:19;;;;;;;7.45;2.28;;;21.10;52.80;;;;;;6229218;27;80749;-62
2021/09/24 12:03:20;;;;;;;5.35;2.17;;;21.00;52.70;;;;;;6225399;27;80658;-62
2021/09/24 12:06:22;;;;;;;3.35;2.10;;;21.00;52.90;;;;;;6224615;27;81141;-62
2021/09/24 12:09:23;;;;;;;4.78;2.55;;;21.10;53.10;;;;;;6230705;27;80647;-63
2021/09/24 12:12:24;;;;;;;4.85;1.92;;;21.00;52.90;;;;;;6235161;27;80310;-63
2021/09/24 12:15:25;;;;;;;3.58;2.20;;;21.10;53.30;;;;;;6229993;28;80311;-63
2021/09/24 12:18:31;;;;;;;3.60;2.15;;;21.00;54.00;;;;;;6230496;27;80388;-63
2021/09/24 12:21:31;;;;;;;6.45;2.38;;;21.00;54.30;;;;;;6226852;27;80673;-62
2021/09/24 12:24:35;;;;;;;5.82;3.00;;;21.00;55.60;;;;;;6222094;27;80827;-60
2021/09/24 12:27:37;;;;;;;7.75;3.35;;;21.00;55.10;;;;;;6222546;28;80538;-61
2021/09/24 12:30:38;;;;;;;6.05;2.60;;;21.00;55.00;;;;;;6223603;28;80360;-61
2021/09/24 12:33:38;;;;;;;6.07;2.80;;;21.00;54.90;;;;;;6224836;27;81163;-61
2021/09/24 12:36:39;;;;;;;4.97;2.88;;;21.10;54.70;;;;;;6219824;28;80228;-61
2021/09/24 12:39:40;;;;;;;5.25;3.22;;;21.10;54.70;;;;;;6223392;27;81566;-61
2021/09/24 12:42:41;;;;;;;7.97;2.92;;;21.10;54.70;;;;;;6226494;28;81042;-60
2021/09/24 12:45:41;;;;;;;4.05;2.50;;;21.10;54.70;;;;;;6226570;28;81390;-62
2021/09/24 12:48:42;;;;;;;6.20;3.15;;;21.10;54.80;;;;;;6225151;28;81518;-61
2021/09/24 12:51:43;;;;;;;6.97;3.17;;;21.10;55.30;;;;;;6223668;27;81187;-60
2021/09/24 12:54:43;;;;;;;5.90;2.50;;;21.20;54.80;;;;;;6223580;27;80928;-60
2021/09/24 12:57:44;;;;;;;4.97;2.75;;;21.20;55.00;;;;;;6223298;27;80791;-61
2021/09/24 13:00:46;;;;;;;4.38;2.67;;;21.20;54.80;;;;;;6222640;27;81524;-61
2021/09/24 13:03:47;;;;;;;4.88;2.85;;;21.30;54.80;;;;;;6223023;28;80692;-61
2021/09/24 13:06:47;;;;;;;4.57;2.65;;;21.30;55.50;;;;;;6221768;28;80463;-61
2021/09/24 13:09:48;;;;;;;5.18;2.75;;;21.30;54.90;;;;;;6224662;27;80309;-61
2021/09/24 13:12:49;;;;;;;5.22;2.83;;;21.30;54.90;;;;;;6229917;27;80715;-63
2021/09/24 13:15:49;;;;;;;5.25;2.80;;;21.30;55.00;;;;;;6232409;28;80209;-62
2021/09/24 13:18:50;;;;;;;6.32;3.13;;;21.30;55.00;;;;;;6227709;28;80773;-62
2021/09/24 13:21:50;;;;;;;3.72;2.47;;;21.30;55.00;;;;;;6227816;27;80585;-62
2021/09/24 13:24:51;;;;;;;6.32;3.47;;;21.30;55.40;;;;;;6223645;27;80221;-62
2021/09/24 13:27:51;;;;;;;4.78;2.53;;;21.40;55.10;;;;;;6227224;28;80270;-62
2021/09/24 13:30:52;;;;;;;6.90;2.55;;;21.40;54.90;;;;;;6224956;28;80791;-63
2021/09/24 13:33:53;;;;;;;6.22;2.78;;;21.40;54.90;;;;;;6226840;27;80414;-62
2021/09/24 13:36:53;;;;;;;4.63;2.40;;;21.40;54.90;;;;;;6224820;28;80476;-62
2021/09/24 13:39:54;;;;;;;4.65;2.47;;;21.40;55.00;;;;;;6223946;28;80708;-62
2021/09/24 13:42:54;;;;;;;5.05;2.72;;;21.40;55.40;;;;;;6226649;28;81371;-62
2021/09/24 13:45:55;;;;;;;4.72;2.75;;;21.40;55.10;;;;;;6228687;27;81007;-62
2021/09/24 13:48:55;;;;;;;5.93;2.40;;;21.40;55.10;;;;;;6229628;28;80442;-62
2021/09/24 13:51:56;;;;;;;5.43;2.90;;;21.40;55.00;;;;;;6226496;28;81433;-62
2021/09/24 13:54:56;;;;;;;4.28;2.42;;;21.40;55.30;;;;;;6227323;28;81768;-62
2021/09/24 13:57:57;;;;;;;4.30;2.40;;;21.40;54.90;;;;;;6225364;27;80672;-63
2021/09/24 14:00:57;;;;;;;4.00;2.35;;;21.40;54.90;;;;;;6228438;28;80911;-63
2021/09/24 14:03:59;;;;;;;4.10;2.40;;;21.40;54.80;;;;;;6225432;28;81975;-64
2021/09/24 14:06:59;;;;;;;4.30;2.40;;;21.40;54.90;;;;;;6227080;28;80428;-64
2021/09/24 14:10:00;;;;;;;4.10;2.40;;;21.40;55.40;;;;;;6225354;28;80566;-64
2021/09/24 14:13:00;;;;;;;8.88;3.15;;;21.40;54.90;;;;;;6224546;28;82105;-64
2021/09/24 14:16:01;;;;;;;8.63;2.55;;;21.40;55.30;;;;;;6217487;28;81224;-63
2021/09/24 14:19:02;;;;;;;6.60;2.47;;;21.40;55.30;;;;;;6223760;27;80364;-63
2021/09/24 14:22:03;;;;;;;8.35;2.85;;;21.30;55.60;;;;;;6230701;27;80362;-63
2021/09/24 14:25:03;;;;;;;4.95;2.55;;;21.30;55.80;;;;;;6229808;27;80875;-63
2021/09/24 14:28:04;;;;;;;7.65;2.95;;;21.30;56.30;;;;;;6205541;28;81518;-64
2021/09/24 14:31:05;;;;;;;5.70;2.50;;;21.30;56.20;;;;;;6208756;28;81461;-63
2021/09/24 14:34:05;;;;;;;5.30;2.33;;;21.40;56.00;;;;;;6221252;28;81493;-63
2021/09/24 14:37:06;;;;;;;7.60;2.70;;;21.40;56.00;;;;;;6222078;28;81587;-61
2021/09/24 14:40:06;;;;;;;6.32;2.50;;;21.40;55.80;;;;;;6220562;27;82134;-63
2021/09/24 14:43:07;;;;;;;6.80;2.55;;;21.40;55.80;;;;;;6233571;27;83528;-62
2021/09/24 14:46:10;;;;;;;6.82;2.45;;;21.40;55.90;;;;;;6222667;28;80611;-61
2021/09/24 14:49:10;;;;;;;10.63;2.55;;;21.40;55.80;;;;;;6232172;28;80468;-62
2021/09/24 14:52:11;;;;;;;7.22;2.60;;;21.40;55.70;;;;;;6231143;28;80887;-62
2021/09/24 14:55:11;;;;;;;5.47;2.30;;;21.40;55.60;;;;;;6232083;27;80859;-62
2021/09/24 14:58:12;;;;;;;6.32;2.72;;;21.40;55.70;;;;;;6234165;27;80657;-62
2021/09/24 15:01:12;;;;;;;9.40;2.72;;;21.40;55.60;;;;;;6214105;28;80773;-63
2021/09/24 15:04:13;;;;;;;4.05;2.30;;;21.40;55.80;;;;;;6225326;28;80611;-64
2021/09/24 15:07:13;;;;;;;4.95;2.22;;;21.40;55.90;;;;;;6232534;27;81419;-63
2021/09/24 15:10:14;;;;;;;9.38;2.63;;;21.40;56.20;;;;;;6229957;28;80662;-62
2021/09/24 15:13:14;;;;;;;5.93;2.35;;;21.40;55.90;;;;;;6225463;27;82695;-61
2021/09/24 15:16:15;;;;;;;3.78;2.17;;;21.40;55.70;;;;;;6231292;27;80922;-62
2021/09/24 15:19:15;;;;;;;5.95;2.22;;;21.40;56.20;;;;;;6227644;27;80443;-62
2021/09/24 15:22:16;;;;;;;6.13;2.58;;;21.40;56.20;;;;;;6224705;28;80531;-63
2021/09/24 15:25:16;;;;;;;7.25;2.00;;;21.40;56.00;;;;;;6232357;27;80563;-62
2021/09/24 15:28:17;;;;;;;4.95;2.72;;;21.50;56.50;;;;;;6232307;27;80712;-62
2021/09/24 15:31:17;;;;;;;6.22;2.47;;;21.50;56.70;;;;;;6231873;28;80837;-62
2021/09/24 15:34:18;;;;;;;5.60;2.45;;;21.50;56.10;;;;;;6231752;27;80337;-61
2021/09/24 15:37:19;;;;;;;5.13;2.25;;;21.50;55.80;;;;;;6234872;27;80593;-62